Time;durP1;ratioP1;P1;durP2;ratioP2;P2;SDS_P1;SDS_P2;PMS_P1;PMS_P2;Temp;Humidity;BMP_temperature;BMP_pressure;BME280_temperature;BME280_humidity;BME280_pressure;Samples;Min_cycle;Max_cycle;Signal;HPM_P1;HPM_P2
2023/03/04 00:00:32;;;;;;;3.10;2.90;;;;;;;19.54;30.58;99576.89;1794498;79;28396;-56
2023/03/04 00:03:20;;;;;;;2.87;2.67;;;;;;;19.54;30.60;99569.23;1807516;78;28419;-62
2023/03/04 00:06:09;;;;;;;3.50;2.90;;;;;;;19.54;30.63;99574.69;1794852;79;28388;-57
2023/03/04 00:08:57;;;;;;;3.00;2.70;;;;;;;19.53;30.44;99576.59;1808932;78;28274;-56
2023/03/04 00:11:45;;;;;;;2.85;2.65;;;;;;;19.53;30.44;99576.59;1822138;77;28240;-54
2023/03/04 00:14:34;;;;;;;2.70;2.50;;;;;;;19.53;30.63;99578.48;1804409;78;28406;-59
2023/03/04 00:17:22;;;;;;;2.45;2.33;;;;;;;19.52;30.64;99583.08;1806463;78;28417;-56
2023/03/04 00:20:13;;;;;;;2.90;2.70;;;;;;;19.52;30.65;99584.45;1803433;78;28581;-59
2023/03/04 00:23:01;;;;;;;3.25;2.90;;;;;;;19.54;30.64;99588.31;1810287;78;28332;-57
2023/03/04 00:25:49;;;;;;;2.30;2.20;;;;;;;19.55;30.61;99588.64;1811170;78;28372;-56
2023/03/04 00:28:38;;;;;;;3.25;2.83;;;;;;;19.55;30.61;99585.91;1813425;78;28333;-55
2023/03/04 00:31:27;;;;;;;2.85;2.72;;;;;;;19.55;30.60;99595.45;1809033;78;28328;-56
2023/03/04 00:34:15;;;;;;;2.95;2.75;;;;;;;19.56;30.61;99598.47;1862785;75;28190;-55
2023/03/04 00:37:03;;;;;;;2.65;2.45;;;;;;;19.56;30.61;99593.02;1862819;75;28266;-56
2023/03/04 00:39:52;;;;;;;4.47;2.60;;;;;;;19.56;30.61;99586.20;1867534;75;28218;-54
2023/03/04 00:42:40;;;;;;;2.70;2.50;;;;;;;19.55;30.62;99591.36;1791076;78;28272;-56
2023/03/04 00:45:29;;;;;;;3.20;2.90;;;;;;;19.54;30.66;99586.42;1804387;78;28339;-54
2023/03/04 00:48:17;;;;;;;2.58;2.37;;;;;;;19.54;30.67;99584.22;1805520;78;28310;-60
2023/03/04 00:51:06;;;;;;;2.70;2.50;;;;;;;19.53;30.66;99583.92;1783013;80;28417;-54
2023/03/04 00:53:54;;;;;;;2.98;2.77;;;;;;;19.54;30.67;99587.79;1796225;78;28521;-56
2023/03/04 00:56:42;;;;;;;2.85;2.65;;;;;;;19.54;30.68;99582.86;1862073;76;28163;-53
2023/03/04 00:59:32;;;;;;;2.90;2.70;;;;;;;19.54;30.64;99578.77;1855597;76;28317;-59
2023/03/04 01:02:21;;;;;;;2.70;2.50;;;;;;;19.55;30.62;99575.02;1850433;76;28154;-52
2023/03/04 01:05:10;;;;;;;3.45;2.58;;;;;;;19.55;30.64;99576.38;1847683;76;28195;-55
2023/03/04 01:07:59;;;;;;;2.67;2.47;;;;;;;19.54;30.63;99575.53;1847667;76;28715;-57
2023/03/04 01:10:48;;;;;;;2.85;2.60;;;;;;;19.55;30.62;99575.02;1851556;76;28227;-56
2023/03/04 01:13:38;;;;;;;3.10;2.90;;;;;;;19.55;30.66;99566.84;1849509;76;28238;-55
2023/03/04 01:16:27;;;;;;;4.07;2.40;;;;;;;19.52;30.66;99564.02;1847855;76;28156;-57
2023/03/04 01:19:16;;;;;;;3.00;2.60;;;;;;;19.53;30.69;99566.22;1847002;76;28241;-55
2023/03/04 01:22:04;;;;;;;2.70;2.50;;;;;;;19.50;30.66;99559.30;1854038;76;28204;-57
2023/03/04 01:24:53;;;;;;;2.83;2.47;;;;;;;19.52;30.72;99559.08;1848511;76;28096;-56
2023/03/04 01:27:41;;;;;;;2.40;2.30;;;;;;;19.51;30.69;99547.34;1842713;76;28242;-55
2023/03/04 01:30:29;;;;;;;2.80;2.42;;;;;;;19.53;30.66;99552.59;1837492;77;28274;-53
2023/03/04 01:33:18;;;;;;;2.60;2.40;;;;;;;19.55;30.67;99549.13;1836032;77;28301;-58
2023/03/04 01:36:06;;;;;;;2.83;2.63;;;;;;;19.53;30.64;99547.98;1858650;76;28321;-55
2023/03/04 01:38:55;;;;;;;2.65;2.45;;;;;;;19.49;30.72;99541.79;1862281;76;28222;-55
2023/03/04 01:41:45;;;;;;;2.92;2.72;;;;;;;19.52;30.66;99547.66;1849613;76;28250;-54
2023/03/04 01:44:34;;;;;;;2.63;2.43;;;;;;;19.56;30.68;99550.78;1854790;76;28192;-57
2023/03/04 01:47:25;;;;;;;2.83;2.62;;;;;;;19.55;30.68;99552.70;1858441;76;28226;-57
2023/03/04 01:50:26;;;;;;;2.80;2.60;;;;;;;19.53;30.70;99545.78;1862676;76;28200;-56
2023/03/04 01:53:17;;;;;;;2.60;2.40;;;;;;;19.54;30.68;99541.98;1847043;76;28347;-54
2023/03/04 01:56:27;;;;;;;2.72;2.52;;;;;;;19.51;30.71;99538.35;1869117;76;28472;-53
2023/03/04 01:59:18;;;;;;;2.95;2.40;;;;;;;19.52;30.72;99531.84;1853067;76;28178;-58
2023/03/04 02:02:06;;;;;;;2.67;2.47;;;;;;;19.49;30.75;99533.62;1837599;77;28220;-56
2023/03/04 02:04:57;;;;;;;2.95;2.75;;;;;;;19.51;30.72;99534.27;1858912;76;28264;-56
2023/03/04 02:07:45;;;;;;;2.77;2.50;;;;;;;19.51;30.73;99532.91;1858090;76;28117;-53
2023/03/04 02:10:34;;;;;;;2.90;2.70;;;;;;;19.51;30.70;99533.72;1854463;76;28187;-54
2023/03/04 02:13:23;;;;;;;2.60;2.40;;;;;;;19.46;30.74;99525.38;1858779;76;28250;-57
2023/03/04 02:16:12;;;;;;;2.72;2.52;;;;;;;19.55;30.70;99537.71;1796457;77;28133;-54
2023/03/04 02:19:01;;;;;;;2.75;2.55;;;;;;;19.54;30.67;99529.22;1856066;76;28224;-55
2023/03/04 02:21:50;;;;;;;2.72;2.52;;;;;;;19.54;30.69;99532.45;1850652;76;28161;-55
2023/03/04 02:24:44;;;;;;;2.57;2.37;;;;;;;19.55;30.67;99530.05;1848175;76;28567;-56
2023/03/04 02:27:33;;;;;;;2.65;2.45;;;;;;;19.55;30.69;99528.70;1834030;76;28230;-53
2023/03/04 02:30:24;;;;;;;3.47;2.60;;;;;;;19.54;30.68;99529.73;1869219;76;28207;-55
2023/03/04 02:33:18;;;;;;;3.07;2.60;;;;;;;19.53;30.70;99530.28;1851372;76;28206;-56
2023/03/04 02:36:09;;;;;;;2.72;2.52;;;;;;;19.53;30.71;99527.56;1847759;76;28290;-54
2023/03/04 02:39:03;;;;;;;2.62;2.42;;;;;;;19.54;30.71;99529.73;1865242;76;28121;-55
2023/03/04 02:41:55;;;;;;;3.20;2.57;;;;;;;19.52;30.74;99523.14;1858286;76;28157;-54
2023/03/04 02:44:48;;;;;;;2.60;2.40;;;;;;;19.54;30.70;99513.39;1853238;76;28750;-55
2023/03/04 02:47:36;;;;;;;2.58;2.37;;;;;;;19.52;30.72;99518.22;1848282;76;28117;-57
2023/03/04 02:50:26;;;;;;;2.37;2.27;;;;;;;19.52;30.74;99518.22;1847892;76;28267;-58
2023/03/04 02:53:15;;;;;;;2.72;2.52;;;;;;;19.53;30.75;99512.57;1847872;76;28265;-57
2023/03/04 02:56:05;;;;;;;2.67;2.47;;;;;;;19.54;30.72;99512.02;1846029;77;28185;-56
2023/03/04 02:58:55;;;;;;;2.75;2.55;;;;;;;19.52;30.71;99509.52;1848264;76;28533;-55
2023/03/04 03:01:43;;;;;;;3.15;2.50;;;;;;;19.54;30.72;99508.78;1833842;76;28256;-54
2023/03/04 03:04:33;;;;;;;2.47;2.27;;;;;;;19.58;30.68;99507.84;1856519;76;28174;-54
2023/03/04 03:07:22;;;;;;;2.80;2.60;;;;;;;19.55;30.67;99502.30;1852228;76;28232;-54
2023/03/04 03:10:12;;;;;;;2.52;2.33;;;;;;;19.53;30.68;99501.67;1859380;76;28238;-55
2023/03/04 03:13:01;;;;;;;2.52;2.33;;;;;;;19.57;30.70;99506.16;1846458;77;28186;-56
2023/03/04 03:15:50;;;;;;;2.62;2.42;;;;;;;19.55;30.69;99502.81;1845093;77;28142;-53
2023/03/04 03:18:40;;;;;;;2.30;2.15;;;;;;;19.53;30.70;99507.64;1856793;77;28165;-56
2023/03/04 03:21:28;;;;;;;3.15;2.37;;;;;;;19.54;30.70;99504.70;1836228;77;28917;-53
2023/03/04 03:24:16;;;;;;;2.70;2.50;;;;;;;19.55;30.71;99498.73;1836500;77;28676;-54
2023/03/04 03:27:05;;;;;;;2.30;2.20;;;;;;;19.53;30.71;99498.95;1839295;77;28317;-55
2023/03/04 03:29:54;;;;;;;2.62;2.42;;;;;;;19.54;30.72;99503.33;1838368;77;28105;-55
2023/03/04 03:32:43;;;;;;;2.50;2.30;;;;;;;19.55;30.72;99502.81;1836037;77;28162;-55
2023/03/04 03:35:31;;;;;;;2.50;2.30;;;;;;;19.54;30.73;99502.48;1836377;77;28337;-56
2023/03/04 03:38:20;;;;;;;3.05;2.85;;;;;;;19.54;30.73;99499.77;1840265;77;28304;-53
2023/03/04 03:41:08;;;;;;;2.65;2.45;;;;;;;19.55;30.72;99506.90;1837046;77;28209;-58
2023/03/04 03:43:57;;;;;;;2.55;2.40;;;;;;;19.56;30.69;99508.55;1836176;77;28286;-55
2023/03/04 03:46:46;;;;;;;2.60;2.35;;;;;;;19.56;30.70;99508.03;1836171;77;28225;-55
2023/03/04 03:49:34;;;;;;;2.40;2.30;;;;;;;19.53;30.70;99509.85;1841625;77;28263;-54
2023/03/04 03:52:22;;;;;;;2.33;2.22;;;;;;;19.59;30.71;99514.95;1856034;77;28118;-55
2023/03/04 03:55:10;;;;;;;2.70;2.50;;;;;;;19.56;30.68;99506.67;1859297;76;28238;-55
2023/03/04 03:57:59;;;;;;;2.67;2.47;;;;;;;19.56;30.70;99508.55;1864143;75;28452;-55
2023/03/04 04:00:47;;;;;;;3.10;2.80;;;;;;;19.56;30.69;99519.45;1852586;77;28241;-58
2023/03/04 04:03:36;;;;;;;2.97;2.70;;;;;;;19.57;30.73;99512.97;1832386;77;28215;-56
2023/03/04 04:06:25;;;;;;;2.62;2.42;;;;;;;19.56;30.70;99509.40;1796613;78;28393;-56
2023/03/04 04:09:13;;;;;;;2.67;2.47;;;;;;;19.58;30.71;99511.38;1807637;78;28362;-58
2023/03/04 04:12:01;;;;;;;2.40;2.20;;;;;;;19.55;30.69;99510.47;1794361;79;28422;-58
2023/03/04 04:14:50;;;;;;;2.52;2.33;;;;;;;19.54;30.75;99506.58;1799854;78;28351;-55
2023/03/04 04:17:38;;;;;;;2.42;2.22;;;;;;;19.55;30.74;99503.66;1804335;78;28396;-57
2023/03/04 04:20:26;;;;;;;2.57;2.37;;;;;;;19.56;30.72;99504.47;1804123;78;28326;-57
2023/03/04 04:23:15;;;;;;;2.42;2.22;;;;;;;19.56;30.69;99504.47;1810839;78;28265;-57
2023/03/04 04:26:03;;;;;;;2.70;2.50;;;;;;;19.56;30.72;99508.55;1810369;78;28346;-58
2023/03/04 04:28:52;;;;;;;2.25;2.10;;;;;;;19.56;30.71;99507.19;1812478;78;28525;-56
2023/03/04 04:31:40;;;;;;;2.90;2.70;;;;;;;19.56;30.74;99515.36;1809375;78;28405;-55
2023/03/04 04:34:29;;;;;;;2.70;2.50;;;;;;;19.55;30.75;99520.00;1863078;75;28234;-54
2023/03/04 04:37:17;;;;;;;3.00;2.60;;;;;;;19.55;30.73;99524.09;1862918;75;28260;-59
2023/03/04 04:40:06;;;;;;;2.40;2.20;;;;;;;19.56;30.74;99522.17;1865733;75;28218;-55
2023/03/04 04:42:55;;;;;;;2.67;2.47;;;;;;;19.58;30.70;99525.55;1865827;75;28100;-56
2023/03/04 04:45:44;;;;;;;2.67;2.47;;;;;;;19.57;30.74;99526.59;1862958;75;28150;-56
2023/03/04 04:48:32;;;;;;;2.42;2.22;;;;;;;19.58;30.69;99519.55;1790946;78;28298;-54
2023/03/04 04:51:21;;;;;;;2.55;2.27;;;;;;;19.58;30.72;99523.64;1807952;78;28402;-53
2023/03/04 04:54:11;;;;;;;2.20;2.10;;;;;;;19.58;30.72;99520.91;1801622;78;28910;-56
2023/03/04 04:56:59;;;;;;;2.40;2.30;;;;;;;19.55;30.72;99524.09;1808992;78;28621;-56
2023/03/04 04:59:48;;;;;;;2.70;2.50;;;;;;;19.56;30.74;99523.02;1824596;78;28311;-58
2023/03/04 05:02:37;;;;;;;2.77;2.58;;;;;;;19.56;30.73;99518.94;1783529;79;28225;-56
2023/03/04 05:05:25;;;;;;;2.58;2.37;;;;;;;19.55;30.75;99517.28;1847938;76;28129;-59
2023/03/04 05:08:14;;;;;;;2.65;2.45;;;;;;;19.53;30.76;99516.66;1847627;76;28124;-54
2023/03/04 05:11:04;;;;;;;2.37;2.27;;;;;;;19.56;30.78;99518.09;1849207;76;28266;-56
2023/03/04 05:13:53;;;;;;;2.60;2.40;;;;;;;19.56;30.75;99515.36;1851976;76;28117;-54
2023/03/04 05:16:41;;;;;;;2.52;2.33;;;;;;;19.55;30.75;99521.36;1847808;76;28165;-55
2023/03/04 05:19:29;;;;;;;2.92;2.17;;;;;;;19.54;30.75;99516.11;1847884;76;34099;-53
2023/03/04 05:22:18;;;;;;;2.47;2.27;;;;;;;19.56;30.77;99527.11;1850993;76;28230;-52
2023/03/04 05:25:07;;;;;;;3.07;2.23;;;;;;;19.56;30.73;99524.38;1850554;76;28104;-55
2023/03/04 05:27:56;;;;;;;2.75;2.55;;;;;;;19.57;30.74;99525.23;1848071;76;28277;-57
2023/03/04 05:30:45;;;;;;;2.90;2.60;;;;;;;19.57;30.72;99532.88;1867353;76;28238;-54
2023/03/04 05:33:34;;;;;;;2.70;2.50;;;;;;;19.58;30.71;99528.28;1855105;76;28173;-56
2023/03/04 05:36:22;;;;;;;2.37;2.17;;;;;;;19.57;30.73;99533.40;1849451;76;28677;-56
2023/03/04 05:39:10;;;;;;;3.15;2.45;;;;;;;19.55;30.76;99534.98;1848046;76;28175;-57
2023/03/04 05:41:58;;;;;;;2.62;2.42;;;;;;;19.57;30.73;99534.77;1847809;76;28221;-57
2023/03/04 05:44:47;;;;;;;2.60;2.40;;;;;;;19.54;30.74;99536.55;1853577;76;28213;-58
2023/03/04 05:47:35;;;;;;;2.50;2.30;;;;;;;19.56;30.75;99535.80;1858703;76;28265;-54
2023/03/04 05:50:24;;;;;;;2.50;2.40;;;;;;;19.55;30.77;99536.87;1823658;77;28303;-58
2023/03/04 05:53:13;;;;;;;2.70;2.50;;;;;;;19.58;30.75;99540.54;1858116;76;28114;-56
2023/03/04 05:56:07;;;;;;;2.63;2.43;;;;;;;19.55;30.75;99534.98;1854223;76;28197;-59
2023/03/04 05:58:58;;;;;;;2.95;2.58;;;;;;;19.57;30.74;99535.61;1862558;75;28373;-55
2023/03/04 06:01:47;;;;;;;2.80;2.58;;;;;;;19.55;30.76;99536.34;1867333;76;28236;-54
2023/03/04 06:04:35;;;;;;;2.60;2.40;;;;;;;19.57;30.78;99537.48;1867032;76;28149;-53
2023/03/04 06:07:23;;;;;;;2.60;2.40;;;;;;;19.57;30.78;99541.05;1863749;76;28245;-56
2023/03/04 06:10:15;;;;;;;2.50;2.20;;;;;;;19.56;30.79;99548.06;1868086;76;28198;-55
2023/03/04 06:13:04;;;;;;;2.55;2.37;;;;;;;19.57;30.79;99546.50;1867701;76;28291;-54
2023/03/04 06:15:57;;;;;;;2.65;2.47;;;;;;;19.56;30.75;99552.99;1865903;76;28116;-54
2023/03/04 06:18:45;;;;;;;2.70;2.50;;;;;;;19.56;30.75;99554.88;1863553;76;28324;-53
2023/03/04 06:21:33;;;;;;;2.50;2.30;;;;;;;19.55;30.76;99559.51;1876772;76;28210;-58
2023/03/04 06:24:22;;;;;;;2.50;2.35;;;;;;;19.54;30.77;99555.09;1878366;76;28179;-54
2023/03/04 06:27:15;;;;;;;2.52;2.33;;;;;;;19.56;30.79;99557.59;1858871;76;28241;-52
2023/03/04 06:30:03;;;;;;;2.83;2.62;;;;;;;19.54;30.80;99563.79;1860160;76;28297;-56
2023/03/04 06:32:51;;;;;;;2.60;2.40;;;;;;;19.57;30.78;99564.73;1870144;76;28277;-55
2023/03/04 06:35:40;;;;;;;2.55;2.35;;;;;;;19.55;30.77;99562.75;1867748;76;28275;-56
2023/03/04 06:38:28;;;;;;;2.77;2.42;;;;;;;19.56;30.78;99561.69;1864349;76;28565;-55
2023/03/04 06:41:17;;;;;;;2.50;2.30;;;;;;;19.55;30.79;99564.11;1878305;76;28157;-54
2023/03/04 06:44:06;;;;;;;2.77;2.58;;;;;;;19.55;30.77;99564.11;1857064;76;28247;-56
2023/03/04 06:46:54;;;;;;;2.50;2.30;;;;;;;19.55;30.75;99566.84;1856944;76;28230;-55
2023/03/04 06:49:42;;;;;;;2.70;2.50;;;;;;;19.56;30.79;99567.13;1878246;76;28130;-60
2023/03/04 06:52:30;;;;;;;2.80;2.50;;;;;;;19.55;30.75;99574.49;1858191;76;28040;-56
2023/03/04 06:55:19;;;;;;;2.70;2.50;;;;;;;19.54;30.75;99570.59;1878301;76;28101;-53
2023/03/04 06:58:08;;;;;;;2.65;2.47;;;;;;;19.54;30.81;99568.72;1857070;76;28258;-56
2023/03/04 07:00:56;;;;;;;2.42;2.22;;;;;;;19.55;30.80;99571.77;1845601;75;28324;-57
2023/03/04 07:03:46;;;;;;;2.60;2.40;;;;;;;19.54;30.80;99586.95;1847996;76;28156;-55
2023/03/04 07:06:34;;;;;;;2.65;2.45;;;;;;;19.55;30.80;99584.55;1842974;76;28246;-54
2023/03/04 07:09:23;;;;;;;2.50;2.30;;;;;;;19.54;30.84;99589.67;1857876;76;28121;-60
2023/03/04 07:12:12;;;;;;;2.62;2.42;;;;;;;19.55;30.83;99584.55;1853808;76;28188;-51
2023/03/04 07:15:00;;;;;;;2.70;2.50;;;;;;;19.54;30.83;99584.22;1846986;76;28149;-56
2023/03/04 07:17:48;;;;;;;2.35;2.22;;;;;;;19.52;30.85;99584.45;1847888;76;28194;-57
2023/03/04 07:20:36;;;;;;;2.70;2.50;;;;;;;19.54;30.82;99592.39;1850100;76;28255;-59
2023/03/04 07:23:25;;;;;;;2.63;2.50;;;;;;;19.55;30.84;99587.27;1850406;76;28164;-57
2023/03/04 07:26:13;;;;;;;2.47;2.37;;;;;;;19.53;30.84;99588.02;1836499;77;28567;-58
2023/03/04 07:29:01;;;;;;;2.90;2.50;;;;;;;19.52;30.88;99587.69;1855405;77;29083;-56
2023/03/04 07:31:50;;;;;;;2.40;2.30;;;;;;;19.54;30.87;99591.03;1842863;77;28228;-55
2023/03/04 07:34:38;;;;;;;2.58;2.37;;;;;;;19.54;30.87;99589.16;1837757;77;28114;-56
2023/03/04 07:37:27;;;;;;;2.50;2.30;;;;;;;19.55;30.80;99588.64;1847751;76;28120;-56
2023/03/04 07:40:15;;;;;;;2.83;2.62;;;;;;;19.54;30.82;99592.39;1847704;76;28248;-55
2023/03/04 07:43:04;;;;;;;2.98;2.70;;;;;;;19.54;30.82;99597.33;1841484;77;28122;-56
2023/03/04 07:45:54;;;;;;;2.77;2.45;;;;;;;19.55;30.84;99596.81;1868637;76;28250;-55
2023/03/04 07:48:43;;;;;;;2.50;2.40;;;;;;;19.52;30.88;99595.86;1848077;76;28191;-56
2023/03/04 07:51:31;;;;;;;2.90;2.70;;;;;;;19.53;30.85;99600.27;1848337;76;28282;-57
2023/03/04 07:54:20;;;;;;;3.50;3.08;;;;;;;19.54;30.85;99598.69;1832201;77;28337;-57
2023/03/04 07:57:08;;;;;;;2.60;2.40;;;;;;;19.56;30.74;99608.00;1857849;76;28274;-56
2023/03/04 07:59:57;;;;;;;2.83;2.62;;;;;;;19.55;30.81;99607.70;1858619;76;28171;-57
2023/03/04 08:02:45;;;;;;;2.65;2.45;;;;;;;19.55;30.82;99609.91;1843067;77;28184;-57
2023/03/04 08:05:33;;;;;;;2.37;2.23;;;;;;;19.55;30.85;99613.16;1837467;77;28240;-55
2023/03/04 08:08:21;;;;;;;2.67;2.42;;;;;;;19.56;30.83;99618.90;1829991;77;28204;-56
2023/03/04 08:11:13;;;;;;;3.42;2.60;;;;;;;19.56;30.83;99614.30;1826448;77;28218;-56
2023/03/04 08:14:02;;;;;;;2.37;2.22;;;;;;;19.55;30.87;99618.09;1840708;77;28268;-57
2023/03/04 08:16:50;;;;;;;2.50;2.30;;;;;;;19.55;30.86;99622.69;1836794;77;28176;-56
2023/03/04 08:19:39;;;;;;;2.65;2.45;;;;;;;19.57;30.87;99621.95;1836024;77;28247;-57
2023/03/04 08:22:27;;;;;;;2.80;2.60;;;;;;;19.56;30.87;99622.98;1836822;77;28259;-58
2023/03/04 08:25:15;;;;;;;2.67;2.47;;;;;;;19.56;30.87;99625.71;1840525;77;28164;-56
2023/03/04 08:28:04;;;;;;;2.67;2.47;;;;;;;19.55;30.87;99624.05;1836496;77;28110;-56
2023/03/04 08:30:55;;;;;;;2.50;2.30;;;;;;;19.56;30.90;99622.98;1833024;77;28187;-54
2023/03/04 08:33:44;;;;;;;2.72;2.50;;;;;;;19.57;30.85;99626.88;1826024;78;28235;-54
2023/03/04 08:36:32;;;;;;;2.40;2.30;;;;;;;19.55;30.86;99624.05;1805082;78;28196;-52
2023/03/04 08:39:20;;;;;;;2.60;2.40;;;;;;;19.56;30.86;99624.34;1802410;79;28320;-56
2023/03/04 08:42:09;;;;;;;2.92;2.30;;;;;;;19.57;30.90;99618.70;1782257;79;28381;-57
2023/03/04 08:44:57;;;;;;;4.20;2.50;;;;;;;19.57;30.94;99624.67;1793463;79;28470;-59
2023/03/04 08:47:46;;;;;;;2.70;2.50;;;;;;;19.56;30.90;99621.11;1803246;78;28222;-55
2023/03/04 08:50:35;;;;;;;2.90;2.70;;;;;;;19.59;30.85;99623.41;1790007;79;28406;-57
2023/03/04 08:53:24;;;;;;;2.55;2.35;;;;;;;19.58;30.80;99626.36;1808087;79;28356;-55
2023/03/04 08:56:14;;;;;;;3.12;2.90;;;;;;;19.57;30.84;99632.84;1799135;79;28329;-58
2023/03/04 08:59:02;;;;;;;2.70;2.50;;;;;;;19.57;30.84;99636.94;1797818;79;28363;-54
2023/03/04 09:01:51;;;;;;;2.77;2.58;;;;;;;19.57;30.84;99630.13;1769377;79;28452;-58
2023/03/04 09:04:40;;;;;;;2.72;2.50;;;;;;;19.58;30.88;99637.27;1808377;78;28364;-55
2023/03/04 09:07:28;;;;;;;2.90;2.70;;;;;;;19.58;30.88;99633.98;1811835;78;28291;-56
2023/03/04 09:10:17;;;;;;;2.85;2.58;;;;;;;19.57;30.85;99632.84;1753813;81;34493;-53
2023/03/04 09:13:05;;;;;;;3.00;2.80;;;;;;;19.59;30.89;99633.47;1826974;78;28301;-55
2023/03/04 09:15:54;;;;;;;3.00;2.70;;;;;;;19.57;30.87;99629.61;1808643;78;28376;-55
2023/03/04 09:18:43;;;;;;;2.70;2.50;;;;;;;19.59;30.89;99637.05;1812571;78;31088;-54
2023/03/04 09:21:31;;;;;;;3.20;2.90;;;;;;;19.59;30.86;99635.68;1799863;78;33119;-57
2023/03/04 09:24:20;;;;;;;2.62;2.42;;;;;;;19.59;30.89;99634.31;1814629;78;28307;-58
2023/03/04 09:27:10;;;;;;;2.67;2.47;;;;;;;19.62;30.88;99643.95;1810473;78;28253;-59
2023/03/04 09:29:58;;;;;;;2.92;2.55;;;;;;;19.60;30.87;99636.52;1811159;78;31119;-55
2023/03/04 09:32:47;;;;;;;2.80;2.60;;;;;;;19.59;30.90;99636.20;1808323;78;38919;-55
2023/03/04 09:35:35;;;;;;;3.10;2.90;;;;;;;19.59;30.89;99641.13;1805565;78;28333;-55
2023/03/04 09:38:24;;;;;;;3.12;2.80;;;;;;;19.60;30.85;99635.16;1815107;78;28242;-56
2023/03/04 09:41:28;;;;;;;2.80;2.60;;;;;;;19.59;30.88;99637.05;1816465;78;28331;-55
2023/03/04 09:44:25;;;;;;;3.67;3.05;;;;;;;19.61;30.85;99637.66;1807833;78;28182;-56
2023/03/04 09:47:16;;;;;;;3.25;2.95;;;;;;;19.59;30.88;99631.59;1802546;78;28288;-54
2023/03/04 09:50:08;;;;;;;2.80;2.60;;;;;;;19.58;30.90;99625.00;1799167;78;28255;-56
2023/03/04 09:53:08;;;;;;;3.00;2.80;;;;;;;19.61;30.87;99624.03;1828398;78;28173;-55
2023/03/04 09:55:58;;;;;;;3.10;2.90;;;;;;;19.60;30.89;99632.44;1811514;78;28652;-56
2023/03/04 09:58:55;;;;;;;2.87;2.67;;;;;;;19.60;30.89;99633.80;1808136;78;28211;-55
2023/03/04 10:01:46;;;;;;;3.08;2.87;;;;;;;19.59;30.91;99631.59;1808214;78;28253;-55
2023/03/04 10:04:38;;;;;;;3.10;2.90;;;;;;;19.59;30.91;99623.94;1845986;76;28213;-56
2023/03/04 10:07:30;;;;;;;4.20;3.22;;;;;;;19.62;30.91;99617.55;1834171;77;28131;-52
2023/03/04 10:10:34;;;;;;;3.58;3.25;;;;;;;19.59;30.92;99611.16;1855957;76;28698;-57
2023/03/04 10:13:25;;;;;;;3.47;3.12;;;;;;;19.62;30.88;99612.63;1855563;76;28232;-56
2023/03/04 10:16:16;;;;;;;3.60;3.00;;;;;;;19.58;30.93;99619.00;1855751;76;28180;-55
2023/03/04 10:19:24;;;;;;;3.35;3.05;;;;;;;19.60;30.90;99613.36;1834964;77;28144;-57
2023/03/04 10:22:27;;;;;;;3.57;3.27;;;;;;;19.61;30.90;99619.11;1852326;76;28187;-56
2023/03/04 10:25:18;;;;;;;3.30;3.00;;;;;;;19.58;30.94;99615.47;1849877;76;28570;-52
2023/03/04 10:28:19;;;;;;;3.77;3.37;;;;;;;19.59;30.96;99615.76;1845128;76;28072;-55
2023/03/04 10:31:23;;;;;;;3.70;3.40;;;;;;;19.59;30.97;99606.22;1845308;76;28062;-55
2023/03/04 10:34:14;;;;;;;4.65;3.30;;;;;;;19.60;30.95;99604.67;1845211;76;37009;-60
2023/03/04 10:37:08;;;;;;;3.43;3.13;;;;;;;19.60;30.97;99599.73;1845807;76;28148;-57
2023/03/04 10:40:00;;;;;;;4.05;3.37;;;;;;;19.62;30.96;99603.09;1850682;76;28414;-57
2023/03/04 10:42:53;;;;;;;3.60;3.30;;;;;;;19.63;30.93;99599.29;1834940;77;28241;-54
2023/03/04 10:45:41;;;;;;;4.50;3.60;;;;;;;19.63;30.92;99599.29;1855695;76;28240;-56
2023/03/04 10:48:32;;;;;;;3.67;3.30;;;;;;;19.63;30.93;99597.92;1855794;76;28042;-54
2023/03/04 10:51:26;;;;;;;4.78;3.80;;;;;;;19.64;30.90;99600.98;1850742;76;28515;-57
2023/03/04 10:54:23;;;;;;;3.65;3.37;;;;;;;19.65;30.93;99602.67;1835096;77;28163;-56
2023/03/04 10:57:18;;;;;;;3.98;3.55;;;;;;;19.65;30.90;99602.12;1855791;76;28209;-56
2023/03/04 11:00:36;;;;;;;4.67;3.47;;;;;;;19.65;30.95;99605.39;1855614;76;28172;-57
2023/03/04 11:03:29;;;;;;;4.90;3.70;;;;;;;19.66;30.89;99602.97;1857937;75;28260;-54
2023/03/04 11:06:22;;;;;;;4.47;3.77;;;;;;;19.63;30.93;99596.05;1868344;76;28129;-55
2023/03/04 11:09:20;;;;;;;4.25;3.72;;;;;;;19.65;30.95;99599.95;1861080;76;28309;-55
2023/03/04 11:12:14;;;;;;;4.97;3.70;;;;;;;19.66;30.91;99595.63;1859646;76;28113;-55
2023/03/04 11:15:04;;;;;;;4.85;3.72;;;;;;;19.66;30.91;99596.99;1869441;76;28310;-57
2023/03/04 11:17:56;;;;;;;4.03;3.72;;;;;;;19.64;30.97;99592.29;1868045;76;28070;-56
2023/03/04 11:20:48;;;;;;;4.42;3.95;;;;;;;19.69;30.94;99595.73;1866103;76;28551;-54
2023/03/04 11:23:49;;;;;;;4.50;4.10;;;;;;;19.67;30.91;99585.58;1863296;76;28160;-57
2023/03/04 11:26:43;;;;;;;5.77;4.00;;;;;;;19.71;30.88;99587.66;1858065;76;28077;-55
2023/03/04 11:29:56;;;;;;;4.45;3.52;;;;;;;19.71;30.89;99585.45;1878264;76;28141;-54
2023/03/04 11:32:48;;;;;;;4.28;3.50;;;;;;;19.71;30.89;99585.45;1856867;76;28215;-60
2023/03/04 11:35:48;;;;;;;5.62;4.08;;;;;;;19.67;30.91;99580.97;1857018;76;28198;-57
2023/03/04 11:38:43;;;;;;;7.03;4.28;;;;;;;19.67;30.89;99580.97;1857994;76;28232;-56
2023/03/04 11:41:37;;;;;;;4.17;3.77;;;;;;;19.67;30.94;99570.59;1862189;76;28097;-56
2023/03/04 11:44:25;;;;;;;4.00;3.70;;;;;;;19.71;30.92;99567.73;1857887;76;28095;-56
2023/03/04 11:47:17;;;;;;;4.58;3.90;;;;;;;19.70;30.89;99570.14;1856763;76;28147;-56
2023/03/04 11:50:25;;;;;;;4.57;3.93;;;;;;;19.71;30.93;99567.73;1856540;76;28261;-57
2023/03/04 11:53:22;;;;;;;4.50;3.90;;;;;;;19.73;30.86;99569.20;1867006;76;28196;-53
2023/03/04 11:56:33;;;;;;;4.90;4.10;;;;;;;19.71;30.91;99566.37;1863984;76;28189;-55
2023/03/04 11:59:41;;;;;;;5.58;4.20;;;;;;;19.69;30.93;99566.60;1862802;76;36098;-55
2023/03/04 12:02:44;;;;;;;5.42;3.67;;;;;;;19.73;30.92;99565.63;1878335;76;28088;-56
2023/03/04 12:06:01;;;;;;;5.25;4.28;;;;;;;19.69;30.94;99556.22;1846625;77;28244;-53
2023/03/04 12:09:02;;;;;;;4.12;3.72;;;;;;;19.70;30.94;99562.80;1859656;76;28153;-55
2023/03/04 12:12:05;;;;;;;6.03;3.72;;;;;;;19.69;30.95;99553.49;1814529;77;28142;-54
2023/03/04 12:15:02;;;;;;;4.85;4.10;;;;;;;19.70;30.96;99549.70;1817493;78;28398;-56
2023/03/04 12:17:59;;;;;;;4.65;3.98;;;;;;;19.68;30.98;99549.92;1797508;78;28483;-57
2023/03/04 12:21:13;;;;;;;5.15;4.45;;;;;;;19.71;30.93;99540.48;1804837;78;28711;-56
2023/03/04 12:24:13;;;;;;;4.20;3.80;;;;;;;19.72;30.92;99538.90;1801730;78;28244;-56
2023/03/04 12:27:14;;;;;;;5.75;4.08;;;;;;;19.73;30.92;99540.59;1828992;77;28198;-57
2023/03/04 12:30:08;;;;;;;4.83;3.77;;;;;;;19.70;30.94;99534.19;1802945;78;28335;-54
2023/03/04 12:33:28;;;;;;;4.83;3.92;;;;;;;19.73;30.95;99535.66;1814245;78;28262;-56
2023/03/04 12:36:23;;;;;;;4.62;4.00;;;;;;;19.76;30.90;99533.88;1808158;78;28354;-52
2023/03/04 12:39:19;;;;;;;5.35;3.80;;;;;;;19.73;30.91;99527.48;1856040;75;28303;-54
2023/03/04 12:42:17;;;;;;;4.08;3.67;;;;;;;19.73;30.91;99526.11;1873891;75;28186;-56
2023/03/04 12:45:35;;;;;;;5.53;3.92;;;;;;;19.72;30.95;99516.28;1852353;76;28327;-56
2023/03/04 12:48:38;;;;;;;4.30;3.90;;;;;;;19.73;30.94;99517.94;1800483;78;28647;-54
2023/03/04 12:51:42;;;;;;;5.25;4.17;;;;;;;19.71;30.93;99515.44;1806163;78;28301;-54
2023/03/04 12:54:36;;;;;;;5.08;4.10;;;;;;;19.72;30.96;99508.92;1792238;78;28329;-54
2023/03/04 12:57:30;;;;;;;5.25;4.17;;;;;;;19.72;30.93;99500.74;1810646;78;28438;-54
2023/03/04 13:00:22;;;;;;;4.62;3.87;;;;;;;19.76;30.90;99508.82;1810925;78;28285;-53
2023/03/04 13:03:22;;;;;;;4.30;3.67;;;;;;;19.76;30.89;99507.98;1829009;78;28312;-57
2023/03/04 13:06:20;;;;;;;4.22;3.83;;;;;;;19.78;30.87;99505.87;1816523;78;28344;-56
2023/03/04 13:09:25;;;;;;;6.30;4.00;;;;;;;19.77;30.90;99508.27;1791770;77;28243;-55
2023/03/04 13:12:19;;;;;;;4.87;3.98;;;;;;;19.76;30.88;99510.70;1851908;76;28539;-55
2023/03/04 13:15:10;;;;;;;4.97;3.85;;;;;;;19.74;30.88;99504.09;1847997;76;28172;-56
2023/03/04 13:18:04;;;;;;;5.05;4.12;;;;;;;19.77;30.88;99505.03;1843055;76;28222;-53
2023/03/04 13:21:15;;;;;;;4.40;4.00;;;;;;;19.80;30.84;99505.13;1858920;76;28176;-56
2023/03/04 13:24:07;;;;;;;4.53;4.08;;;;;;;19.78;30.87;99503.98;1837498;77;28223;-56
2023/03/04 13:26:55;;;;;;;4.28;3.80;;;;;;;19.77;30.86;99502.30;1852974;76;28180;-57